createdAt,value
2022-11-24T00:01:59.606Z,8.40
2022-11-24T00:04:31.670Z,5.38
2022-11-24T00:07:03.779Z,5.28
2022-11-24T00:09:35.716Z,6.85
2022-11-24T00:12:07.568Z,4.97
2022-11-24T00:14:39.429Z,7.20
2022-11-24T00:17:11.331Z,5.78
2022-11-24T00:19:43.321Z,5.95
2022-11-24T00:22:15.245Z,4.75
2022-11-24T00:24:48.432Z,5.00
2022-11-24T00:27:20.356Z,7.47
2022-11-24T00:29:52.237Z,5.18
2022-11-24T00:32:24.140Z,4.78
2022-11-24T00:34:56.114Z,4.97
2022-11-24T00:37:27.960Z,4.15
2022-11-24T00:39:59.826Z,5.88
2022-11-24T00:42:31.731Z,10.40
2022-11-24T00:45:13.140Z,7.97
2022-11-24T00:47:45.543Z,6.38
2022-11-24T00:50:17.465Z,4.45
2022-11-24T00:52:49.309Z,8.20
2022-11-24T00:55:21.567Z,5.50
2022-11-24T00:57:53.514Z,4.75
2022-11-24T01:00:26.491Z,5.32
2022-11-24T01:02:58.439Z,3.83
2022-11-24T01:05:30.392Z,10.05
2022-11-24T01:08:02.228Z,5.53
2022-11-24T01:10:34.316Z,5.80
2022-11-24T01:13:06.705Z,5.65
2022-11-24T01:15:56.892Z,4.28
2022-11-24T01:18:28.889Z,5.47
2022-11-24T01:21:09.677Z,4.68
2022-11-24T01:23:42.269Z,4.97
2022-11-24T01:26:16.994Z,4.15
2022-11-24T01:28:57.057Z,4.20
2022-11-24T01:31:28.988Z,5.85
2022-11-24T01:34:00.896Z,5.00
2022-11-24T01:36:36.560Z,4.15
2022-11-24T01:39:08.728Z,4.13
2022-11-24T01:41:40.699Z,7.88
2022-11-24T01:44:26.888Z,5.72
2022-11-24T01:47:24.045Z,8.35
2022-11-24T01:49:59.898Z,5.38
2022-11-24T01:52:46.773Z,7.22
2022-11-24T01:55:23.243Z,3.75
2022-11-24T01:58:01.772Z,4.30
2022-11-24T02:00:36.315Z,3.35
2022-11-24T02:03:08.771Z,6.00
2022-11-24T02:05:50.968Z,5.45
2022-11-24T02:08:40.751Z,5.75
2022-11-24T02:11:13.320Z,5.13
2022-11-24T02:13:46.358Z,4.53
2022-11-24T02:16:18.328Z,6.05
2022-11-24T02:18:50.250Z,5.90
2022-11-24T02:21:22.295Z,3.58
2022-11-24T02:24:23.902Z,10.50
2022-11-24T02:26:55.907Z,2.92
2022-11-24T02:29:27.818Z,4.28
2022-11-24T02:32:03.427Z,3.03
2022-11-24T02:34:35.643Z,3.25
2022-11-24T02:37:07.680Z,5.55
2022-11-24T02:39:39.564Z,3.22
2022-11-24T02:42:13.995Z,6.90
2022-11-24T02:44:51.243Z,5.43
2022-11-24T02:47:23.165Z,6.32
2022-11-24T02:49:55.090Z,3.63
2022-11-24T02:52:26.970Z,7.72
2022-11-24T02:54:58.808Z,5.45
2022-11-24T02:57:30.983Z,6.22
2022-11-24T03:00:04.488Z,3.65
2022-11-24T03:02:36.407Z,6.05
2022-11-24T03:05:09.007Z,5.35
2022-11-24T03:07:40.907Z,4.40
2022-11-24T03:10:12.875Z,6.28
2022-11-24T03:12:44.698Z,4.05
2022-11-24T03:15:16.663Z,4.45
2022-11-24T03:17:48.535Z,3.65
2022-11-24T03:20:20.408Z,4.90
2022-11-24T03:22:52.684Z,7.95
2022-11-24T03:25:24.541Z,9.23
2022-11-24T03:27:59.093Z,5.35
2022-11-24T03:30:32.515Z,8.48
2022-11-24T03:33:05.145Z,13.00
2022-11-24T03:35:36.984Z,9.57
2022-11-24T03:38:09.937Z,6.20
2022-11-24T03:40:41.853Z,3.72
2022-11-24T03:43:13.795Z,5.15
2022-11-24T03:45:49.821Z,7.43
2022-11-24T03:48:21.854Z,6.78
2022-11-24T03:50:59.136Z,5.88
2022-11-24T03:53:32.315Z,6.65
2022-11-24T03:56:04.522Z,4.57
2022-11-24T03:58:36.439Z,10.13
2022-11-24T04:01:31.157Z,7.38
2022-11-24T04:04:57.884Z,5.68
2022-11-24T04:07:29.865Z,6.63
2022-11-24T04:10:01.923Z,7.40
2022-11-24T04:12:45.849Z,6.25
2022-11-24T04:15:19.600Z,7.20
2022-11-24T04:17:51.584Z,8.80
2022-11-24T04:20:23.856Z,5.85
2022-11-24T04:22:55.753Z,5.93
2022-11-24T04:25:28.100Z,3.45
2022-11-24T04:28:00.031Z,6.72
2022-11-24T04:30:32.444Z,7.88
2022-11-24T04:33:04.457Z,5.28
2022-11-24T04:35:36.391Z,12.75
2022-11-24T04:38:08.597Z,5.80
2022-11-24T04:40:40.562Z,7.93
2022-11-24T04:43:12.507Z,6.47
2022-11-24T04:45:44.625Z,6.43
2022-11-24T04:48:16.574Z,7.20
2022-11-24T04:50:48.770Z,7.20
2022-11-24T04:53:21.035Z,7.10
2022-11-24T04:55:52.916Z,5.70
2022-11-24T04:58:24.937Z,9.32
2022-11-24T05:00:56.849Z,6.68
2022-11-24T05:03:28.832Z,8.63
2022-11-24T05:06:00.869Z,7.03
2022-11-24T05:08:32.784Z,4.93
2022-11-24T05:11:06.168Z,8.20
2022-11-24T05:13:38.059Z,4.95
2022-11-24T05:16:10.386Z,4.95
2022-11-24T05:18:42.360Z,8.02
2022-11-24T05:21:14.336Z,4.78
2022-11-24T05:23:46.226Z,5.45
2022-11-24T05:26:18.487Z,6.45
2022-11-24T05:28:50.381Z,7.30
2022-11-24T05:31:22.489Z,5.15
2022-11-24T05:33:54.546Z,6.38
2022-11-24T05:36:44.854Z,6.05
2022-11-24T05:39:16.844Z,5.10
2022-11-24T05:41:48.969Z,5.75
2022-11-24T05:44:20.864Z,14.30
2022-11-24T05:46:52.775Z,8.75
2022-11-24T05:49:24.720Z,7.88
2022-11-24T05:51:56.596Z,7.10
2022-11-24T05:54:31.127Z,6.15
2022-11-24T05:57:03.297Z,7.38
2022-11-24T05:59:35.265Z,13.00
2022-11-24T06:02:07.261Z,10.18
2022-11-24T06:04:39.430Z,8.70
2022-11-24T06:07:12.834Z,16.13
2022-11-24T06:09:44.833Z,10.55
2022-11-24T06:12:16.756Z,10.52
2022-11-24T06:14:48.690Z,13.75
2022-11-24T06:17:20.654Z,7.55
2022-11-24T06:19:52.603Z,11.10
2022-11-24T06:22:24.533Z,9.43
2022-11-24T06:24:56.488Z,10.98
2022-11-24T06:27:28.456Z,8.05
2022-11-24T06:30:00.830Z,11.95
2022-11-24T06:32:32.784Z,20.08
2022-11-24T06:35:05.554Z,9.95
2022-11-24T06:37:37.999Z,9.30
2022-11-24T06:40:10.377Z,7.68
2022-11-24T06:42:42.228Z,9.52
2022-11-24T06:45:14.217Z,12.85
2022-11-24T06:47:46.116Z,12.25
2022-11-24T06:50:18.028Z,9.73
2022-11-24T06:52:49.888Z,11.85
2022-11-24T06:55:21.838Z,13.27
2022-11-24T06:57:53.782Z,14.18
2022-11-24T07:00:25.874Z,12.48
2022-11-24T07:02:59.572Z,13.45
2022-11-24T07:05:31.680Z,10.35
2022-11-24T07:08:05.111Z,10.30
2022-11-24T07:10:37.063Z,9.90
2022-11-24T07:13:10.560Z,10.10
2022-11-24T07:15:42.562Z,12.27
2022-11-24T07:18:14.671Z,11.55
2022-11-24T07:20:46.572Z,12.15
2022-11-24T07:23:18.449Z,9.07
2022-11-24T07:25:50.291Z,10.82
2022-11-24T07:28:22.338Z,8.13
2022-11-24T07:30:54.317Z,9.13
2022-11-24T07:33:26.308Z,16.77
2022-11-24T07:36:00.672Z,12.07
2022-11-24T07:38:32.993Z,15.77
2022-11-24T07:41:07.183Z,10.52
2022-11-24T07:43:39.850Z,15.93
2022-11-24T07:46:14.317Z,10.07
2022-11-24T07:48:46.756Z,14.02
2022-11-24T07:51:18.726Z,11.52
2022-11-24T07:53:50.631Z,12.27
2022-11-24T07:56:22.742Z,8.52
2022-11-24T07:58:54.705Z,13.38
2022-11-24T08:01:26.973Z,9.52
2022-11-24T08:03:58.956Z,14.35
2022-11-24T08:06:38.682Z,12.90
2022-11-24T08:09:13.828Z,11.23
2022-11-24T08:11:45.764Z,11.52
2022-11-24T08:14:17.713Z,12.13
2022-11-24T08:16:49.732Z,12.50
2022-11-24T08:19:22.734Z,15.05
2022-11-24T08:21:54.735Z,14.52
2022-11-24T08:24:27.669Z,13.43
2022-11-24T08:26:59.654Z,13.50
2022-11-24T08:29:32.551Z,12.85
2022-11-24T08:32:04.682Z,13.50
2022-11-24T08:34:37.007Z,11.75
2022-11-24T08:37:09.198Z,18.25
2022-11-24T08:39:41.021Z,13.75
2022-11-24T08:42:12.939Z,14.45
2022-11-24T08:44:44.847Z,11.85
2022-11-24T08:47:16.891Z,14.40
2022-11-24T08:49:48.784Z,20.25
2022-11-24T08:52:20.708Z,14.77
2022-11-24T08:54:52.739Z,17.00
2022-11-24T08:57:24.870Z,16.85
2022-11-24T08:59:56.790Z,19.70
2022-11-24T09:02:28.723Z,13.15
2022-11-24T09:05:00.864Z,13.93
2022-11-24T09:07:32.991Z,10.45
2022-11-24T09:10:05.274Z,11.32
2022-11-24T09:12:37.220Z,12.35
2022-11-24T09:15:09.399Z,11.95
2022-11-24T09:17:41.259Z,11.48
2022-11-24T09:20:13.341Z,13.35
2022-11-24T09:22:47.601Z,12.73
2022-11-24T09:25:19.568Z,13.82
2022-11-24T09:27:51.799Z,14.05
2022-11-24T09:30:23.788Z,12.25
2022-11-24T09:32:56.646Z,13.27
2022-11-24T09:35:28.487Z,12.43
2022-11-24T09:38:00.382Z,14.35
2022-11-24T09:40:32.812Z,14.05
2022-11-24T09:43:17.549Z,14.85
2022-11-24T09:46:06.180Z,14.70
2022-11-24T09:48:42.760Z,15.93
2022-11-24T09:51:15.659Z,16.27
2022-11-24T09:54:01.119Z,17.38
2022-11-24T09:56:38.567Z,19.77
2022-11-24T09:59:17.591Z,15.65
2022-11-24T10:01:51.660Z,15.80
2022-11-24T10:04:37.929Z,15.07
2022-11-24T10:07:30.642Z,16.73
2022-11-24T10:10:22.879Z,15.93
2022-11-24T10:13:11.595Z,15.30
2022-11-24T10:16:06.881Z,28.27
2022-11-24T10:18:53.894Z,16.60
2022-11-24T10:21:25.734Z,14.65
2022-11-24T10:24:27.834Z,18.33
2022-11-24T10:27:13.900Z,15.07
2022-11-24T10:29:51.173Z,14.98
2022-11-24T10:32:33.530Z,35.83
2022-11-24T10:35:26.554Z,17.88
2022-11-24T10:38:29.517Z,16.25
2022-11-24T10:41:10.611Z,19.42
2022-11-24T10:43:43.136Z,22.92
2022-11-24T10:46:27.274Z,27.88
2022-11-24T10:49:04.345Z,35.53
2022-11-24T10:51:53.270Z,19.13
2022-11-24T10:54:25.252Z,18.50
2022-11-24T10:56:57.321Z,24.05
2022-11-24T10:59:40.332Z,22.67
2022-11-24T11:02:31.203Z,18.75
2022-11-24T11:05:26.272Z,18.65
2022-11-24T11:08:20.070Z,19.67
2022-11-24T11:11:17.202Z,19.15
2022-11-24T11:13:56.895Z,20.02
2022-11-24T11:16:52.462Z,22.85
2022-11-24T11:19:48.353Z,21.25
2022-11-24T11:22:30.181Z,20.05
2022-11-24T11:25:10.370Z,20.20
2022-11-24T11:27:42.930Z,21.80
2022-11-24T11:36:16.929Z,21.80
2022-11-24T11:38:48.956Z,22.60
2022-11-24T11:41:32.972Z,22.75
2022-11-24T11:44:24.914Z,24.00
2022-11-24T11:46:59.084Z,23.80
2022-11-24T11:49:31.086Z,24.00
2022-11-24T11:52:18.241Z,20.60
2022-11-24T11:55:33.703Z,26.40
2022-11-24T11:58:24.344Z,24.00
2022-11-24T12:01:02.210Z,26.30
2022-11-24T12:03:43.634Z,22.75
2022-11-24T12:06:50.126Z,20.40
2022-11-24T12:09:49.456Z,24.40
2022-11-24T12:12:33.470Z,23.73
2022-11-24T12:15:11.182Z,27.83
2022-11-24T12:18:06.419Z,20.42
2022-11-24T12:21:01.900Z,25.50
2022-11-24T12:24:03.270Z,22.73
2022-11-24T12:26:40.506Z,21.30
2022-11-24T12:29:39.431Z,55.05
2022-11-24T12:32:32.327Z,22.52
2022-11-24T12:35:27.968Z,22.30
2022-11-24T12:38:06.187Z,28.20
2022-11-24T12:41:18.065Z,22.35
2022-11-24T12:43:53.062Z,21.45
2022-11-24T12:46:46.270Z,20.85
2022-11-24T12:49:36.578Z,24.80
2022-11-24T12:52:25.750Z,24.00
2022-11-24T12:54:58.975Z,26.40
2022-11-24T12:57:37.113Z,23.67
2022-11-24T13:00:17.363Z,23.08
2022-11-24T13:03:18.775Z,21.38
2022-11-24T13:06:15.741Z,23.25
2022-11-24T13:08:51.153Z,22.58
2022-11-24T13:11:23.042Z,23.90
2022-11-24T13:14:01.996Z,119.30
2022-11-24T13:16:38.670Z,42.50
2022-11-24T13:19:23.092Z,24.13
2022-11-24T13:22:31.922Z,22.67
2022-11-24T13:25:29.541Z,23.65
2022-11-24T13:28:04.311Z,20.52
2022-11-24T13:30:36.416Z,22.30
2022-11-24T13:33:16.148Z,31.00
2022-11-24T13:36:10.561Z,197.65
2022-11-24T13:38:45.238Z,61.47
2022-11-24T13:41:32.659Z,46.97
2022-11-24T13:44:13.896Z,29.05
2022-11-24T13:47:05.632Z,27.67
2022-11-24T13:49:49.388Z,25.10
2022-11-24T13:52:43.214Z,25.45
2022-11-24T13:55:23.626Z,28.02
2022-11-24T13:58:00.225Z,24.70
2022-11-24T14:00:58.597Z,28.33
2022-11-24T14:04:27.878Z,39.95
2022-11-24T14:06:55.545Z,24.70
2022-11-24T14:09:51.585Z,26.88
2022-11-24T14:12:30.172Z,22.52
2022-11-24T14:15:25.841Z,23.80
2022-11-24T14:17:57.913Z,22.30
2022-11-24T14:20:30.311Z,22.85
2022-11-24T14:23:02.370Z,27.08
2022-11-24T14:25:35.441Z,23.48
2022-11-24T14:28:21.579Z,25.13
2022-11-24T14:31:22.909Z,29.90
2022-11-24T14:34:16.620Z,32.78
2022-11-24T14:36:50.274Z,69.85
2022-11-24T14:39:24.010Z,111.22
2022-11-24T14:42:14.453Z,92.60
2022-11-24T14:44:59.280Z,71.50
2022-11-24T14:47:37.171Z,67.70
2022-11-24T14:50:16.231Z,61.72
2022-11-24T14:52:56.436Z,51.33
2022-11-24T14:55:32.964Z,43.63
2022-11-24T14:58:21.256Z,35.72
2022-11-24T15:01:27.879Z,27.95
2022-11-24T15:07:29.459Z,27.95
2022-11-24T15:10:06.168Z,26.45
2022-11-24T15:12:40.731Z,23.50
2022-11-24T15:15:15.666Z,27.25
2022-11-24T15:17:52.701Z,26.30
2022-11-24T15:20:30.316Z,27.17
2022-11-24T15:23:25.722Z,91.28
2022-11-24T15:25:58.196Z,34.88
2022-11-24T15:28:31.569Z,28.70
2022-11-24T15:31:14.183Z,31.55
2022-11-24T15:33:46.697Z,32.38
2022-11-24T15:36:20.829Z,25.80
2022-11-24T15:38:52.807Z,31.38
2022-11-24T15:41:33.943Z,26.77
2022-11-24T15:44:05.941Z,27.13
2022-11-24T15:46:39.482Z,28.48
2022-11-24T15:49:11.547Z,27.02
2022-11-24T15:51:45.739Z,33.78
2022-11-24T15:54:19.159Z,37.88
2022-11-24T15:56:51.117Z,34.33
2022-11-24T15:59:23.063Z,42.33
2022-11-24T16:01:55.001Z,40.85
2022-11-24T16:04:27.981Z,50.17
2022-11-24T16:07:00.619Z,35.33
2022-11-24T16:09:32.562Z,42.78
2022-11-24T16:12:04.945Z,41.00
2022-11-24T16:14:37.234Z,53.67
2022-11-24T16:17:09.420Z,47.30
2022-11-24T16:19:42.159Z,51.45
2022-11-24T16:22:14.406Z,58.70
2022-11-24T16:24:46.448Z,46.15
2022-11-24T16:27:18.334Z,45.70
2022-11-24T16:29:50.265Z,47.78
2022-11-24T16:32:22.209Z,44.50
2022-11-24T16:34:57.253Z,42.45
2022-11-24T16:37:32.451Z,45.70
2022-11-24T16:40:07.199Z,37.72
2022-11-24T16:42:39.403Z,38.28
2022-11-24T16:45:13.186Z,42.95
2022-11-24T16:47:46.784Z,45.63
2022-11-24T16:50:18.686Z,40.70
2022-11-24T16:52:53.912Z,40.28
2022-11-24T16:55:25.787Z,38.22
2022-11-24T16:57:57.720Z,40.17
2022-11-24T17:00:31.867Z,44.58
2022-11-24T17:03:03.781Z,39.63
2022-11-24T17:05:39.089Z,39.38
2022-11-24T17:08:11.646Z,38.20
2022-11-24T17:10:43.575Z,48.05
2022-11-24T17:13:19.672Z,34.92
2022-11-24T17:15:54.289Z,41.95
2022-11-24T17:18:27.809Z,37.92
2022-11-24T17:21:05.953Z,44.03
2022-11-24T17:23:44.739Z,38.20
2022-11-24T17:26:19.429Z,38.45
2022-11-24T17:28:51.669Z,40.05
2022-11-24T17:31:27.312Z,34.85
2022-11-24T17:34:00.686Z,37.90
2022-11-24T17:36:38.041Z,39.17
2022-11-24T17:39:13.477Z,42.20
2022-11-24T17:41:45.493Z,44.33
2022-11-24T17:44:20.168Z,37.95
2022-11-24T17:46:52.133Z,43.45
2022-11-24T17:49:24.561Z,42.10
2022-11-24T17:51:56.518Z,37.92
2022-11-24T17:54:45.892Z,34.67
2022-11-24T17:57:19.288Z,42.37
2022-11-24T17:59:51.566Z,40.85
2022-11-24T18:02:23.658Z,39.83
2022-11-24T18:04:55.625Z,32.40
2022-11-24T18:07:27.575Z,38.63
2022-11-24T18:09:59.455Z,32.03
2022-11-24T18:12:35.425Z,36.10
2022-11-24T18:15:07.755Z,35.85
2022-11-24T18:17:39.811Z,32.28
2022-11-24T18:20:12.045Z,33.28
2022-11-24T18:23:04.538Z,34.13
2022-11-24T18:25:37.196Z,29.48
2022-11-24T18:28:09.194Z,26.05
2022-11-24T18:30:41.225Z,30.67
2022-11-24T18:33:13.253Z,30.42
2022-11-24T18:36:00.812Z,30.35
2022-11-24T18:38:36.952Z,28.55
2022-11-24T18:41:10.573Z,26.80
2022-11-24T18:43:43.144Z,25.13
2022-11-24T18:46:17.121Z,27.17
2022-11-24T18:48:50.484Z,25.65
2022-11-24T18:51:23.828Z,25.85
2022-11-24T18:53:58.254Z,24.80
2022-11-24T18:56:33.348Z,20.38
2022-11-24T18:59:05.284Z,20.35
2022-11-24T19:01:39.863Z,28.10
2022-11-24T19:04:12.922Z,23.75
2022-11-24T19:06:45.174Z,22.58
2022-11-24T19:09:22.674Z,27.38
2022-11-24T19:11:54.618Z,21.65
2022-11-24T19:14:26.592Z,25.58
2022-11-24T19:17:02.044Z,20.52
2022-11-24T19:19:34.566Z,23.13
2022-11-24T19:22:06.473Z,22.92
2022-11-24T19:24:38.677Z,24.23
2022-11-24T19:27:10.941Z,25.15
2022-11-24T19:29:47.327Z,27.77
2022-11-24T19:32:19.557Z,27.17
2022-11-24T19:34:51.457Z,29.60
2022-11-24T19:37:23.603Z,17.98
2022-11-24T19:39:58.057Z,22.70
2022-11-24T19:42:30.104Z,23.42
2022-11-24T19:45:02.027Z,27.40
2022-11-24T19:47:42.867Z,23.95
2022-11-24T19:50:18.789Z,25.88
2022-11-24T19:52:51.482Z,24.10
2022-11-24T19:55:23.394Z,20.20
2022-11-24T19:57:55.368Z,25.25
2022-11-24T20:00:41.616Z,22.10
2022-11-24T20:03:26.240Z,18.45
2022-11-24T20:06:03.482Z,19.48
2022-11-24T20:08:37.284Z,19.77
2022-11-24T20:11:13.250Z,19.45
2022-11-24T20:13:46.603Z,16.88
2022-11-24T20:16:26.606Z,20.45
2022-11-24T20:19:01.096Z,16.95
2022-11-24T20:21:34.369Z,14.93
2022-11-24T20:24:10.256Z,18.27
2022-11-24T20:26:45.677Z,18.77
2022-11-24T20:29:18.171Z,17.60
2022-11-24T20:31:52.207Z,17.80
2022-11-24T20:34:25.006Z,16.02
2022-11-24T20:36:57.003Z,14.80
2022-11-24T20:39:28.938Z,20.20
2022-11-24T20:42:00.909Z,16.73
2022-11-24T20:44:33.096Z,18.65
2022-11-24T20:47:07.134Z,15.88
2022-11-24T20:49:38.994Z,20.67
2022-11-24T20:52:11.669Z,17.80
2022-11-24T20:54:46.719Z,16.05
2022-11-24T20:57:18.806Z,16.35
2022-11-24T20:59:52.364Z,15.88
2022-11-24T21:02:25.984Z,15.65
2022-11-24T21:04:57.996Z,13.95
2022-11-24T21:07:29.921Z,15.00
2022-11-24T21:10:02.852Z,14.82
2022-11-24T21:12:35.002Z,14.35
2022-11-24T21:15:07.757Z,13.32
2022-11-24T21:17:39.681Z,15.27
2022-11-24T21:20:11.972Z,11.13
2022-11-24T21:22:43.873Z,14.85
2022-11-24T21:25:15.882Z,12.93
2022-11-24T21:27:47.816Z,14.13
2022-11-24T21:30:19.653Z,16.58
2022-11-24T21:32:51.604Z,12.63
2022-11-24T21:35:23.465Z,11.63
2022-11-24T21:37:55.434Z,13.90
2022-11-24T21:40:35.089Z,12.20
2022-11-24T21:47:19.529Z,11.45
2022-11-24T21:49:51.454Z,13.73
2022-11-24T21:52:23.300Z,14.88
2022-11-24T21:54:55.273Z,14.63
2022-11-24T21:57:28.243Z,11.82
2022-11-24T22:00:01.593Z,11.85
2022-11-24T22:02:38.327Z,16.48
2022-11-24T22:05:10.361Z,13.82
2022-11-24T22:07:42.351Z,17.77
2022-11-24T22:10:14.474Z,11.30
2022-11-24T22:12:46.419Z,12.00
2022-11-24T22:15:18.370Z,10.98
2022-11-24T22:17:50.249Z,13.05
2022-11-24T22:20:22.101Z,17.27
2022-11-24T22:22:54.040Z,14.63
2022-11-24T22:25:29.686Z,12.65
2022-11-24T22:28:01.625Z,11.00
2022-11-24T22:30:33.528Z,16.92
2022-11-24T22:33:05.422Z,22.17
2022-11-24T22:35:37.282Z,11.90
2022-11-24T22:38:09.143Z,11.20
2022-11-24T22:40:41.179Z,11.10
2022-11-24T22:43:13.200Z,10.07
2022-11-24T22:45:48.240Z,9.18
2022-11-24T22:48:20.229Z,10.38
2022-11-24T22:50:52.124Z,11.45
2022-11-24T22:53:23.956Z,10.10
2022-11-24T22:55:55.769Z,11.77
2022-11-24T22:58:27.673Z,7.88
2022-11-24T23:01:36.917Z,9.73
2022-11-24T23:04:08.937Z,11.05
2022-11-24T23:06:41.113Z,7.60
2022-11-24T23:09:13.191Z,12.93
2022-11-24T23:11:45.041Z,13.07
2022-11-24T23:14:16.962Z,8.80
2022-11-24T23:16:48.927Z,10.07
2022-11-24T23:19:20.943Z,6.57
2022-11-24T23:21:53.086Z,8.13
2022-11-24T23:24:24.909Z,11.07
2022-11-24T23:26:56.780Z,10.55
2022-11-24T23:29:28.647Z,9.95
2022-11-24T23:32:00.577Z,17.25
2022-11-24T23:34:32.623Z,13.85
2022-11-24T23:37:04.560Z,13.68
2022-11-24T23:39:36.478Z,13.27
2022-11-24T23:42:08.526Z,10.23
2022-11-24T23:44:40.438Z,11.48
2022-11-24T23:47:12.282Z,12.07
2022-11-24T23:49:44.130Z,9.02
2022-11-24T23:52:16.037Z,13.63
2022-11-24T23:54:47.867Z,10.85
2022-11-24T23:57:19.751Z,16.60
2022-11-24T23:59:51.610Z,12.02
